Corapeake, North Carolina
Current Conditions -  °F | °C
As of 3:15 AM on Tuesday 27 Jan 2015 (Local Time) from KSFQ Reporting Station
Overcast Overcast  
Wind Chill: 24°   Ceiling: 2800
Heat Index: 31°   Visibility: 10mi
Dew Point: 27°   Wind: 8mph
Humidity: 86%   Direction: 350°N
Pressure: 29.69"   Gusts: NA
Location:  36.53°N, 76.58°W
Report Text: KSFQ 270815Z AUTO 35007KT 310V010 10SM SCT010 SCT016 OVC028 00/M03 A2969 RMK AO2 T10051026
Loading
Personal Weather Stations






























Interactive Weather Map New forecast layout! Learn more

10-Day Weather Forecast

Advertisements
Track Severe Weather on mobile